createdAt,value
2023-04-23T00:00:02.442Z,1002.9
2023-04-23T00:15:02.746Z,1002.7
2023-04-23T00:30:03.171Z,1002.8
2023-04-23T00:45:02.624Z,1002.7
2023-04-23T01:00:03.044Z,1002.7
2023-04-23T01:15:02.488Z,1002.8
2023-04-23T01:30:02.916Z,1002.7
2023-04-23T01:45:02.462Z,1002.9
2023-04-23T02:00:02.766Z,1003.2
2023-04-23T02:15:03.401Z,1003.0
2023-04-23T02:30:02.677Z,1003.1
2023-04-23T02:45:03.108Z,1002.8
2023-04-23T03:00:02.522Z,1003.0
2023-04-23T03:15:02.982Z,1003.0
2023-04-23T03:30:02.493Z,1003.0
2023-04-23T03:45:02.871Z,1003.1
2023-04-23T04:00:02.481Z,1002.8
2023-04-23T04:15:02.732Z,1002.8
2023-04-23T04:30:02.214Z,1002.8
2023-04-23T04:45:02.626Z,1002.7
2023-04-23T05:00:03.041Z,1002.9
2023-04-23T05:15:02.542Z,1002.9
2023-04-23T05:30:02.932Z,1002.9
2023-04-23T05:45:02.537Z,1002.9
2023-04-23T06:00:02.832Z,1002.8
2023-04-23T06:15:02.492Z,1002.8
2023-04-23T06:30:02.717Z,1002.7
2023-04-23T06:45:05.326Z,1002.6
2023-04-23T07:00:02.612Z,1002.5
2023-04-23T07:15:03.079Z,1002.3
2023-04-23T07:30:02.537Z,1002.1
2023-04-23T07:45:02.924Z,1002.0
2023-04-23T08:00:02.535Z,1002.0
2023-04-23T08:15:02.801Z,1001.7
2023-04-23T08:30:02.249Z,1001.7
2023-04-23T08:45:02.672Z,1001.8
2023-04-23T09:00:03.125Z,1001.8
2023-04-23T09:15:02.568Z,1001.7
2023-04-23T09:30:03.035Z,1001.7
2023-04-23T09:45:02.545Z,1001.4
2023-04-23T10:00:13.285Z,1001.4
2023-04-23T10:15:02.584Z,1001.3
2023-04-23T10:45:09.993Z,1001.3
2023-04-23T11:00:02.666Z,1001.2
2023-04-23T11:15:03.144Z,1001.1
2023-04-23T11:30:02.579Z,1001.0
2023-04-23T11:45:02.981Z,1000.8
2023-04-23T12:00:02.567Z,1000.6
2023-04-23T12:15:02.880Z,1000.5
2023-04-23T12:30:04.077Z,1000.4
2023-04-23T12:45:02.742Z,1000.2
2023-04-23T13:00:03.215Z,1000.1
2023-04-23T13:15:02.626Z,999.9
2023-04-23T13:30:03.077Z,999.6
2023-04-23T13:45:02.619Z,999.4
2023-04-23T14:00:02.961Z,999.1
2023-04-23T14:15:02.590Z,998.8
2023-04-23T14:30:02.844Z,998.8
2023-04-23T14:45:02.289Z,998.7
2023-04-23T15:00:02.718Z,998.9
2023-04-23T15:15:03.100Z,998.7
2023-04-23T15:30:02.596Z,998.3
2023-04-23T15:45:03.027Z,998.0
2023-04-23T16:00:02.633Z,998.0
2023-04-23T16:15:02.897Z,997.8
2023-04-23T16:30:02.361Z,997.6
2023-04-23T16:45:02.797Z,997.4
2023-04-23T17:00:03.233Z,997.3
2023-04-23T17:15:02.684Z,997.3
2023-04-23T17:30:03.133Z,997.0
2023-04-23T17:45:02.631Z,997.3
2023-04-23T18:00:02.976Z,997.2
2023-04-23T18:15:02.634Z,997.1
2023-04-23T18:30:02.857Z,996.9
2023-04-23T18:45:02.265Z,996.8
2023-04-23T19:00:02.744Z,996.7
2023-04-23T19:15:03.163Z,997.2
2023-04-23T19:30:02.627Z,997.3
2023-04-23T19:45:03.080Z,997.1
2023-04-23T20:00:02.646Z,996.7
2023-04-23T20:15:02.908Z,996.5
2023-04-23T20:30:02.390Z,996.2
2023-04-23T20:45:02.827Z,996.0
2023-04-23T21:00:02.240Z,995.9
2023-04-23T21:15:02.697Z,995.6
2023-04-23T21:30:03.115Z,995.3
2023-04-23T21:45:02.697Z,995.4
2023-04-23T22:00:03.009Z,995.4
2023-04-23T22:15:02.671Z,995.2
2023-04-23T22:30:02.900Z,995.2
2023-04-23T22:45:02.327Z,995.4
2023-04-23T23:00:02.763Z,995.3
2023-04-23T23:15:03.190Z,995.7
2023-04-23T23:30:02.686Z,995.4
2023-04-23T23:45:03.080Z,995.2
